sensor_id;sensor_type;location;lat;lon;timestamp;P1;durP1;ratioP1;P2;durP2;ratioP2
74777;SDS011;63298;53.164;8.610;2023-06-10T00:01:54;8.48;;;2.45;;
74777;SDS011;63298;53.164;8.610;2023-06-10T00:04:19;5.28;;;2.67;;
74777;SDS011;63298;53.164;8.610;2023-06-10T00:06:45;6.70;;;2.55;;
74777;SDS011;63298;53.164;8.610;2023-06-10T00:09:10;8.88;;;2.40;;
74777;SDS011;63298;53.164;8.610;2023-06-10T00:11:36;4.75;;;2.40;;
74777;SDS011;63298;53.164;8.610;2023-06-10T00:14:02;14.18;;;2.83;;
74777;SDS011;63298;53.164;8.610;2023-06-10T00:16:28;5.13;;;2.50;;
74777;SDS011;63298;53.164;8.610;2023-06-10T00:18:53;11.13;;;2.63;;
74777;SDS011;63298;53.164;8.610;2023-06-10T00:21:19;8.98;;;3.38;;
74777;SDS011;63298;53.164;8.610;2023-06-10T00:23:45;5.00;;;2.35;;
74777;SDS011;63298;53.164;8.610;2023-06-10T00:26:10;6.07;;;2.55;;
74777;SDS011;63298;53.164;8.610;2023-06-10T00:28:36;10.38;;;2.50;;
74777;SDS011;63298;53.164;8.610;2023-06-10T00:31:01;7.05;;;2.55;;
74777;SDS011;63298;53.164;8.610;2023-06-10T00:33:26;9.93;;;3.08;;
74777;SDS011;63298;53.164;8.610;2023-06-10T00:35:52;6.82;;;2.75;;
74777;SDS011;63298;53.164;8.610;2023-06-10T00:38:17;9.93;;;2.58;;
74777;SDS011;63298;53.164;8.610;2023-06-10T00:40:42;10.40;;;3.22;;
74777;SDS011;63298;53.164;8.610;2023-06-10T00:43:08;7.05;;;3.08;;
74777;SDS011;63298;53.164;8.610;2023-06-10T00:45:34;7.90;;;3.10;;
74777;SDS011;63298;53.164;8.610;2023-06-10T00:47:59;7.38;;;2.85;;
74777;SDS011;63298;53.164;8.610;2023-06-10T00:50:26;7.55;;;2.70;;
74777;SDS011;63298;53.164;8.610;2023-06-10T00:52:51;7.10;;;2.60;;
74777;SDS011;63298;53.164;8.610;2023-06-10T00:55:19;12.20;;;2.70;;
74777;SDS011;63298;53.164;8.610;2023-06-10T00:57:45;11.93;;;2.65;;
74777;SDS011;63298;53.164;8.610;2023-06-10T01:00:11;9.18;;;2.67;;
74777;SDS011;63298;53.164;8.610;2023-06-10T01:02:37;8.88;;;2.92;;
74777;SDS011;63298;53.164;8.610;2023-06-10T01:05:02;9.77;;;2.95;;
74777;SDS011;63298;53.164;8.610;2023-06-10T01:07:31;7.40;;;3.05;;
74777;SDS011;63298;53.164;8.610;2023-06-10T01:10:11;7.28;;;2.85;;
74777;SDS011;63298;53.164;8.610;2023-06-10T01:12:46;10.27;;;2.80;;
74777;SDS011;63298;53.164;8.610;2023-06-10T01:15:19;6.90;;;2.78;;
74777;SDS011;63298;53.164;8.610;2023-06-10T01:17:56;10.18;;;2.70;;
74777;SDS011;63298;53.164;8.610;2023-06-10T01:22:47;8.13;;;3.20;;
74777;SDS011;63298;53.164;8.610;2023-06-10T01:25:12;6.28;;;2.55;;
74777;SDS011;63298;53.164;8.610;2023-06-10T01:27:37;10.63;;;3.00;;
74777;SDS011;63298;53.164;8.610;2023-06-10T01:30:11;9.23;;;2.90;;
74777;SDS011;63298;53.164;8.610;2023-06-10T01:32:41;9.48;;;3.15;;
74777;SDS011;63298;53.164;8.610;2023-06-10T01:35:09;6.63;;;3.47;;
74777;SDS011;63298;53.164;8.610;2023-06-10T01:37:36;8.30;;;2.92;;
74777;SDS011;63298;53.164;8.610;2023-06-10T01:40:03;6.13;;;2.85;;
74777;SDS011;63298;53.164;8.610;2023-06-10T01:42:30;6.78;;;2.72;;
74777;SDS011;63298;53.164;8.610;2023-06-10T01:44:55;9.43;;;3.17;;
74777;SDS011;63298;53.164;8.610;2023-06-10T01:47:20;11.10;;;3.53;;
74777;SDS011;63298;53.164;8.610;2023-06-10T01:49:46;8.00;;;2.90;;
74777;SDS011;63298;53.164;8.610;2023-06-10T01:52:11;17.35;;;3.50;;
74777;SDS011;63298;53.164;8.610;2023-06-10T01:54:37;5.63;;;2.75;;
74777;SDS011;63298;53.164;8.610;2023-06-10T01:57:02;4.72;;;2.75;;
74777;SDS011;63298;53.164;8.610;2023-06-10T01:59:28;6.70;;;3.15;;
74777;SDS011;63298;53.164;8.610;2023-06-10T02:01:55;11.98;;;3.67;;
74777;SDS011;63298;53.164;8.610;2023-06-10T02:04:20;8.48;;;3.50;;
74777;SDS011;63298;53.164;8.610;2023-06-10T02:06:46;9.15;;;3.50;;
74777;SDS011;63298;53.164;8.610;2023-06-10T02:09:11;7.93;;;3.07;;
74777;SDS011;63298;53.164;8.610;2023-06-10T02:11:36;10.45;;;3.25;;
74777;SDS011;63298;53.164;8.610;2023-06-10T02:14:02;9.73;;;3.20;;
74777;SDS011;63298;53.164;8.610;2023-06-10T02:16:27;9.85;;;4.15;;
74777;SDS011;63298;53.164;8.610;2023-06-10T02:18:52;13.55;;;3.42;;
74777;SDS011;63298;53.164;8.610;2023-06-10T02:21:18;11.07;;;3.17;;
74777;SDS011;63298;53.164;8.610;2023-06-10T02:23:44;6.95;;;3.25;;
74777;SDS011;63298;53.164;8.610;2023-06-10T02:26:10;10.55;;;3.80;;
74777;SDS011;63298;53.164;8.610;2023-06-10T02:28:35;10.13;;;3.92;;
74777;SDS011;63298;53.164;8.610;2023-06-10T02:31:00;12.03;;;4.13;;
74777;SDS011;63298;53.164;8.610;2023-06-10T02:33:26;13.82;;;3.75;;
74777;SDS011;63298;53.164;8.610;2023-06-10T02:36:05;9.73;;;3.42;;
74777;SDS011;63298;53.164;8.610;2023-06-10T02:38:31;9.50;;;3.75;;
74777;SDS011;63298;53.164;8.610;2023-06-10T02:40:56;9.00;;;3.60;;
74777;SDS011;63298;53.164;8.610;2023-06-10T02:43:22;10.63;;;3.75;;
74777;SDS011;63298;53.164;8.610;2023-06-10T02:45:48;8.57;;;3.13;;
74777;SDS011;63298;53.164;8.610;2023-06-10T02:48:19;8.23;;;3.72;;
74777;SDS011;63298;53.164;8.610;2023-06-10T02:50:44;8.85;;;3.72;;
74777;SDS011;63298;53.164;8.610;2023-06-10T02:53:10;8.25;;;3.65;;
74777;SDS011;63298;53.164;8.610;2023-06-10T02:55:35;12.05;;;3.78;;
74777;SDS011;63298;53.164;8.610;2023-06-10T02:58:00;10.18;;;3.20;;
74777;SDS011;63298;53.164;8.610;2023-06-10T03:00:26;7.63;;;3.35;;
74777;SDS011;63298;53.164;8.610;2023-06-10T03:02:51;12.98;;;4.20;;
74777;SDS011;63298;53.164;8.610;2023-06-10T03:05:20;10.00;;;3.30;;
74777;SDS011;63298;53.164;8.610;2023-06-10T03:07:45;7.78;;;3.75;;
74777;SDS011;63298;53.164;8.610;2023-06-10T03:10:11;8.93;;;3.70;;
74777;SDS011;63298;53.164;8.610;2023-06-10T03:12:36;10.93;;;3.60;;
74777;SDS011;63298;53.164;8.610;2023-06-10T03:15:02;9.80;;;4.40;;
74777;SDS011;63298;53.164;8.610;2023-06-10T03:17:28;9.50;;;3.85;;
74777;SDS011;63298;53.164;8.610;2023-06-10T03:19:53;11.90;;;3.90;;
74777;SDS011;63298;53.164;8.610;2023-06-10T03:22:19;7.82;;;3.22;;
74777;SDS011;63298;53.164;8.610;2023-06-10T03:24:45;8.68;;;4.10;;
74777;SDS011;63298;53.164;8.610;2023-06-10T03:27:10;9.77;;;3.47;;
74777;SDS011;63298;53.164;8.610;2023-06-10T03:29:36;8.65;;;3.30;;
74777;SDS011;63298;53.164;8.610;2023-06-10T03:32:02;8.48;;;3.88;;
74777;SDS011;63298;53.164;8.610;2023-06-10T03:34:28;8.77;;;3.55;;
74777;SDS011;63298;53.164;8.610;2023-06-10T03:36:54;7.28;;;3.42;;
74777;SDS011;63298;53.164;8.610;2023-06-10T03:39:19;10.85;;;3.10;;
74777;SDS011;63298;53.164;8.610;2023-06-10T03:41:45;6.88;;;3.30;;
74777;SDS011;63298;53.164;8.610;2023-06-10T03:44:10;10.20;;;3.40;;
74777;SDS011;63298;53.164;8.610;2023-06-10T03:46:35;6.60;;;3.90;;
74777;SDS011;63298;53.164;8.610;2023-06-10T03:49:00;9.03;;;3.60;;
74777;SDS011;63298;53.164;8.610;2023-06-10T03:51:26;7.83;;;2.80;;
74777;SDS011;63298;53.164;8.610;2023-06-10T03:53:52;9.90;;;3.90;;
74777;SDS011;63298;53.164;8.610;2023-06-10T03:56:17;6.65;;;3.33;;
74777;SDS011;63298;53.164;8.610;2023-06-10T03:58:43;5.93;;;3.05;;
74777;SDS011;63298;53.164;8.610;2023-06-10T04:01:08;5.45;;;3.20;;
74777;SDS011;63298;53.164;8.610;2023-06-10T04:03:34;8.55;;;3.40;;
74777;SDS011;63298;53.164;8.610;2023-06-10T04:05:59;5.20;;;3.13;;
74777;SDS011;63298;53.164;8.610;2023-06-10T04:08:24;7.57;;;3.03;;
74777;SDS011;63298;53.164;8.610;2023-06-10T04:10:50;6.72;;;3.53;;
74777;SDS011;63298;53.164;8.610;2023-06-10T04:13:15;11.60;;;3.58;;
74777;SDS011;63298;53.164;8.610;2023-06-10T04:15:40;6.80;;;3.50;;
74777;SDS011;63298;53.164;8.610;2023-06-10T04:18:06;6.78;;;3.33;;
74777;SDS011;63298;53.164;8.610;2023-06-10T04:20:31;7.03;;;3.25;;
74777;SDS011;63298;53.164;8.610;2023-06-10T04:22:57;9.68;;;3.97;;
74777;SDS011;63298;53.164;8.610;2023-06-10T04:25:22;7.78;;;3.92;;
74777;SDS011;63298;53.164;8.610;2023-06-10T04:27:48;9.43;;;3.60;;
74777;SDS011;63298;53.164;8.610;2023-06-10T04:30:13;11.85;;;4.10;;
74777;SDS011;63298;53.164;8.610;2023-06-10T04:32:39;10.23;;;3.80;;
74777;SDS011;63298;53.164;8.610;2023-06-10T04:35:04;11.60;;;4.13;;
74777;SDS011;63298;53.164;8.610;2023-06-10T04:37:30;8.25;;;3.53;;
74777;SDS011;63298;53.164;8.610;2023-06-10T04:39:55;7.78;;;3.63;;
74777;SDS011;63298;53.164;8.610;2023-06-10T04:42:21;8.15;;;3.83;;
74777;SDS011;63298;53.164;8.610;2023-06-10T04:44:46;12.77;;;4.07;;
74777;SDS011;63298;53.164;8.610;2023-06-10T04:47:11;9.95;;;3.83;;
74777;SDS011;63298;53.164;8.610;2023-06-10T04:49:37;7.72;;;3.83;;
74777;SDS011;63298;53.164;8.610;2023-06-10T04:52:02;8.80;;;4.03;;
74777;SDS011;63298;53.164;8.610;2023-06-10T04:54:28;9.02;;;4.32;;
74777;SDS011;63298;53.164;8.610;2023-06-10T04:56:53;4.47;;;3.03;;
74777;SDS011;63298;53.164;8.610;2023-06-10T04:59:18;6.97;;;3.78;;
74777;SDS011;63298;53.164;8.610;2023-06-10T05:01:44;9.63;;;3.43;;
74777;SDS011;63298;53.164;8.610;2023-06-10T05:04:09;6.97;;;3.38;;
74777;SDS011;63298;53.164;8.610;2023-06-10T05:06:34;5.88;;;3.28;;
74777;SDS011;63298;53.164;8.610;2023-06-10T05:08:59;6.63;;;3.50;;
74777;SDS011;63298;53.164;8.610;2023-06-10T05:11:25;9.20;;;3.27;;
74777;SDS011;63298;53.164;8.610;2023-06-10T05:13:50;7.05;;;3.42;;
74777;SDS011;63298;53.164;8.610;2023-06-10T05:16:15;8.63;;;2.95;;
74777;SDS011;63298;53.164;8.610;2023-06-10T05:18:41;8.95;;;3.10;;
74777;SDS011;63298;53.164;8.610;2023-06-10T05:21:06;6.28;;;2.80;;
74777;SDS011;63298;53.164;8.610;2023-06-10T05:23:31;13.20;;;5.40;;
74777;SDS011;63298;53.164;8.610;2023-06-10T05:25:57;6.47;;;3.20;;
74777;SDS011;63298;53.164;8.610;2023-06-10T05:28:22;10.50;;;3.28;;
74777;SDS011;63298;53.164;8.610;2023-06-10T05:30:47;7.10;;;3.13;;
74777;SDS011;63298;53.164;8.610;2023-06-10T05:33:13;8.20;;;3.40;;
74777;SDS011;63298;53.164;8.610;2023-06-10T05:35:38;9.23;;;2.70;;
74777;SDS011;63298;53.164;8.610;2023-06-10T05:38:03;5.55;;;3.10;;
74777;SDS011;63298;53.164;8.610;2023-06-10T05:40:28;8.18;;;3.40;;
74777;SDS011;63298;53.164;8.610;2023-06-10T05:42:54;8.82;;;3.33;;
74777;SDS011;63298;53.164;8.610;2023-06-10T05:45:20;7.75;;;3.30;;
74777;SDS011;63298;53.164;8.610;2023-06-10T05:47:45;3.92;;;2.58;;
74777;SDS011;63298;53.164;8.610;2023-06-10T05:50:10;5.68;;;2.70;;
74777;SDS011;63298;53.164;8.610;2023-06-10T05:52:36;7.65;;;3.20;;
74777;SDS011;63298;53.164;8.610;2023-06-10T05:55:05;7.75;;;2.60;;
74777;SDS011;63298;53.164;8.610;2023-06-10T05:57:30;6.70;;;3.00;;
74777;SDS011;63298;53.164;8.610;2023-06-10T05:59:56;7.35;;;2.88;;
74777;SDS011;63298;53.164;8.610;2023-06-10T06:02:21;8.20;;;2.80;;
74777;SDS011;63298;53.164;8.610;2023-06-10T06:04:46;6.75;;;2.97;;
74777;SDS011;63298;53.164;8.610;2023-06-10T06:07:12;9.95;;;2.83;;
74777;SDS011;63298;53.164;8.610;2023-06-10T06:09:37;11.50;;;3.25;;
74777;SDS011;63298;53.164;8.610;2023-06-10T06:12:03;6.95;;;3.00;;
74777;SDS011;63298;53.164;8.610;2023-06-10T06:14:30;8.88;;;3.42;;
74777;SDS011;63298;53.164;8.610;2023-06-10T06:16:56;6.25;;;2.92;;
74777;SDS011;63298;53.164;8.610;2023-06-10T06:19:21;11.35;;;3.40;;
74777;SDS011;63298;53.164;8.610;2023-06-10T06:21:47;9.82;;;3.38;;
74777;SDS011;63298;53.164;8.610;2023-06-10T06:24:12;9.68;;;3.00;;
74777;SDS011;63298;53.164;8.610;2023-06-10T06:26:37;7.15;;;3.25;;
74777;SDS011;63298;53.164;8.610;2023-06-10T06:29:02;10.13;;;2.85;;
74777;SDS011;63298;53.164;8.610;2023-06-10T06:31:28;7.25;;;3.45;;
74777;SDS011;63298;53.164;8.610;2023-06-10T06:33:53;8.27;;;2.90;;
74777;SDS011;63298;53.164;8.610;2023-06-10T06:36:18;5.43;;;2.67;;
74777;SDS011;63298;53.164;8.610;2023-06-10T06:38:44;8.98;;;2.88;;
74777;SDS011;63298;53.164;8.610;2023-06-10T06:41:09;6.55;;;2.97;;
74777;SDS011;63298;53.164;8.610;2023-06-10T06:43:34;9.20;;;2.95;;
74777;SDS011;63298;53.164;8.610;2023-06-10T06:45:59;9.68;;;2.42;;
74777;SDS011;63298;53.164;8.610;2023-06-10T06:48:25;5.10;;;2.40;;
74777;SDS011;63298;53.164;8.610;2023-06-10T06:50:50;5.63;;;2.60;;
74777;SDS011;63298;53.164;8.610;2023-06-10T06:53:15;4.20;;;3.28;;
74777;SDS011;63298;53.164;8.610;2023-06-10T06:55:41;9.27;;;3.00;;
74777;SDS011;63298;53.164;8.610;2023-06-10T06:58:06;8.75;;;3.30;;
74777;SDS011;63298;53.164;8.610;2023-06-10T07:00:31;6.15;;;2.78;;
74777;SDS011;63298;53.164;8.610;2023-06-10T07:02:57;8.35;;;3.25;;
74777;SDS011;63298;53.164;8.610;2023-06-10T07:05:23;6.18;;;2.85;;
74777;SDS011;63298;53.164;8.610;2023-06-10T07:07:49;5.18;;;2.95;;
74777;SDS011;63298;53.164;8.610;2023-06-10T07:10:14;5.85;;;2.60;;
74777;SDS011;63298;53.164;8.610;2023-06-10T07:12:39;6.70;;;2.95;;
74777;SDS011;63298;53.164;8.610;2023-06-10T07:15:05;7.35;;;3.60;;
74777;SDS011;63298;53.164;8.610;2023-06-10T07:17:30;6.40;;;2.60;;
74777;SDS011;63298;53.164;8.610;2023-06-10T07:19:56;8.38;;;3.10;;
74777;SDS011;63298;53.164;8.610;2023-06-10T07:22:21;7.95;;;2.72;;
74777;SDS011;63298;53.164;8.610;2023-06-10T07:24:46;5.80;;;2.80;;
74777;SDS011;63298;53.164;8.610;2023-06-10T07:27:12;6.10;;;2.55;;
74777;SDS011;63298;53.164;8.610;2023-06-10T07:29:37;8.95;;;3.38;;
74777;SDS011;63298;53.164;8.610;2023-06-10T07:32:03;10.83;;;2.77;;
74777;SDS011;63298;53.164;8.610;2023-06-10T07:34:29;6.70;;;2.95;;
74777;SDS011;63298;53.164;8.610;2023-06-10T07:36:54;6.25;;;2.80;;
74777;SDS011;63298;53.164;8.610;2023-06-10T07:39:19;5.50;;;2.83;;
74777;SDS011;63298;53.164;8.610;2023-06-10T07:41:45;8.75;;;3.17;;
74777;SDS011;63298;53.164;8.610;2023-06-10T07:44:10;5.50;;;2.55;;
74777;SDS011;63298;53.164;8.610;2023-06-10T07:46:35;5.70;;;2.80;;
74777;SDS011;63298;53.164;8.610;2023-06-10T07:49:00;5.97;;;2.30;;
74777;SDS011;63298;53.164;8.610;2023-06-10T07:51:26;3.08;;;2.22;;
74777;SDS011;63298;53.164;8.610;2023-06-10T07:53:51;5.28;;;2.78;;
74777;SDS011;63298;53.164;8.610;2023-06-10T07:56:16;5.60;;;2.65;;
74777;SDS011;63298;53.164;8.610;2023-06-10T07:58:42;8.75;;;2.15;;
74777;SDS011;63298;53.164;8.610;2023-06-10T08:01:07;5.72;;;2.33;;
74777;SDS011;63298;53.164;8.610;2023-06-10T08:03:32;6.90;;;3.38;;
74777;SDS011;63298;53.164;8.610;2023-06-10T08:05:58;6.55;;;2.40;;
74777;SDS011;63298;53.164;8.610;2023-06-10T08:08:23;5.65;;;2.58;;
74777;SDS011;63298;53.164;8.610;2023-06-10T08:10:48;9.70;;;2.70;;
74777;SDS011;63298;53.164;8.610;2023-06-10T08:13:14;5.80;;;2.38;;
74777;SDS011;63298;53.164;8.610;2023-06-10T08:15:39;6.90;;;2.30;;
74777;SDS011;63298;53.164;8.610;2023-06-10T08:18:04;5.93;;;2.40;;
74777;SDS011;63298;53.164;8.610;2023-06-10T08:20:29;6.22;;;2.60;;
74777;SDS011;63298;53.164;8.610;2023-06-10T08:22:55;6.72;;;2.72;;
74777;SDS011;63298;53.164;8.610;2023-06-10T08:25:20;5.72;;;2.80;;
74777;SDS011;63298;53.164;8.610;2023-06-10T08:27:45;6.03;;;2.50;;
74777;SDS011;63298;53.164;8.610;2023-06-10T08:30:11;5.05;;;2.33;;
74777;SDS011;63298;53.164;8.610;2023-06-10T08:32:36;10.00;;;2.58;;
74777;SDS011;63298;53.164;8.610;2023-06-10T08:35:02;6.05;;;2.42;;
74777;SDS011;63298;53.164;8.610;2023-06-10T08:37:28;6.32;;;2.67;;
74777;SDS011;63298;53.164;8.610;2023-06-10T08:39:54;7.53;;;2.92;;
74777;SDS011;63298;53.164;8.610;2023-06-10T08:42:23;7.72;;;2.75;;
74777;SDS011;63298;53.164;8.610;2023-06-10T08:45:04;7.45;;;2.30;;
74777;SDS011;63298;53.164;8.610;2023-06-10T08:47:32;3.75;;;2.30;;
74777;SDS011;63298;53.164;8.610;2023-06-10T08:50:02;7.43;;;2.80;;
74777;SDS011;63298;53.164;8.610;2023-06-10T08:52:28;5.63;;;3.03;;
74777;SDS011;63298;53.164;8.610;2023-06-10T08:54:59;9.30;;;2.95;;
74777;SDS011;63298;53.164;8.610;2023-06-10T08:59:55;10.18;;;2.88;;
74777;SDS011;63298;53.164;8.610;2023-06-10T09:02:21;9.82;;;3.47;;
74777;SDS011;63298;53.164;8.610;2023-06-10T09:04:48;25.25;;;4.05;;
74777;SDS011;63298;53.164;8.610;2023-06-10T09:07:15;8.05;;;3.40;;
74777;SDS011;63298;53.164;8.610;2023-06-10T09:09:41;6.82;;;3.60;;
74777;SDS011;63298;53.164;8.610;2023-06-10T09:12:07;11.38;;;3.30;;
74777;SDS011;63298;53.164;8.610;2023-06-10T09:14:33;6.97;;;3.78;;
74777;SDS011;63298;53.164;8.610;2023-06-10T09:16:59;7.53;;;3.05;;
74777;SDS011;63298;53.164;8.610;2023-06-10T09:19:25;8.68;;;3.22;;
74777;SDS011;63298;53.164;8.610;2023-06-10T09:21:51;7.85;;;3.28;;
74777;SDS011;63298;53.164;8.610;2023-06-10T09:24:17;8.55;;;3.03;;
74777;SDS011;63298;53.164;8.610;2023-06-10T09:26:43;6.10;;;3.10;;
74777;SDS011;63298;53.164;8.610;2023-06-10T09:29:08;5.05;;;3.25;;
74777;SDS011;63298;53.164;8.610;2023-06-10T09:31:35;8.55;;;3.58;;
74777;SDS011;63298;53.164;8.610;2023-06-10T09:34:11;8.18;;;3.20;;
74777;SDS011;63298;53.164;8.610;2023-06-10T09:36:38;5.32;;;3.13;;
74777;SDS011;63298;53.164;8.610;2023-06-10T09:39:04;13.30;;;3.72;;
74777;SDS011;63298;53.164;8.610;2023-06-10T09:41:41;7.35;;;3.60;;
74777;SDS011;63298;53.164;8.610;2023-06-10T09:44:13;9.70;;;3.67;;
74777;SDS011;63298;53.164;8.610;2023-06-10T09:46:40;15.52;;;4.25;;
74777;SDS011;63298;53.164;8.610;2023-06-10T09:49:05;14.30;;;3.60;;
74777;SDS011;63298;53.164;8.610;2023-06-10T09:51:31;6.35;;;2.60;;
74777;SDS011;63298;53.164;8.610;2023-06-10T09:53:57;5.50;;;3.05;;
74777;SDS011;63298;53.164;8.610;2023-06-10T09:56:36;5.30;;;3.08;;
74777;SDS011;63298;53.164;8.610;2023-06-10T09:59:02;8.80;;;3.00;;
74777;SDS011;63298;53.164;8.610;2023-06-10T10:01:29;5.00;;;2.58;;
74777;SDS011;63298;53.164;8.610;2023-06-10T10:03:55;6.07;;;3.10;;
74777;SDS011;63298;53.164;8.610;2023-06-10T10:06:21;6.78;;;3.00;;
74777;SDS011;63298;53.164;8.610;2023-06-10T10:08:47;6.88;;;3.45;;
74777;SDS011;63298;53.164;8.610;2023-06-10T10:11:18;5.78;;;2.70;;
74777;SDS011;63298;53.164;8.610;2023-06-10T10:13:45;9.65;;;2.40;;
74777;SDS011;63298;53.164;8.610;2023-06-10T10:16:20;6.15;;;2.55;;
74777;SDS011;63298;53.164;8.610;2023-06-10T10:18:52;3.45;;;2.20;;
74777;SDS011;63298;53.164;8.610;2023-06-10T10:21:23;5.38;;;2.88;;
74777;SDS011;63298;53.164;8.610;2023-06-10T10:26:17;4.88;;;2.45;;
74777;SDS011;63298;53.164;8.610;2023-06-10T10:28:48;6.13;;;2.53;;
74777;SDS011;63298;53.164;8.610;2023-06-10T10:31:21;5.03;;;2.33;;
74777;SDS011;63298;53.164;8.610;2023-06-10T10:33:53;6.45;;;2.50;;
74777;SDS011;63298;53.164;8.610;2023-06-10T10:36:22;6.13;;;2.50;;
74777;SDS011;63298;53.164;8.610;2023-06-10T10:38:48;5.18;;;2.47;;
74777;SDS011;63298;53.164;8.610;2023-06-10T10:41:13;9.40;;;2.63;;
74777;SDS011;63298;53.164;8.610;2023-06-10T10:43:40;7.38;;;2.70;;
74777;SDS011;63298;53.164;8.610;2023-06-10T10:46:12;7.55;;;2.50;;
74777;SDS011;63298;53.164;8.610;2023-06-10T10:48:38;4.53;;;2.30;;
74777;SDS011;63298;53.164;8.610;2023-06-10T10:51:05;5.57;;;2.80;;
74777;SDS011;63298;53.164;8.610;2023-06-10T10:53:30;6.00;;;2.55;;
74777;SDS011;63298;53.164;8.610;2023-06-10T10:55:59;4.32;;;2.13;;
74777;SDS011;63298;53.164;8.610;2023-06-10T10:58:24;4.75;;;2.20;;
74777;SDS011;63298;53.164;8.610;2023-06-10T11:00:50;5.10;;;2.08;;
74777;SDS011;63298;53.164;8.610;2023-06-10T11:03:16;3.83;;;2.00;;
74777;SDS011;63298;53.164;8.610;2023-06-10T11:08:08;3.93;;;1.90;;
74777;SDS011;63298;53.164;8.610;2023-06-10T11:10:34;6.13;;;1.88;;
74777;SDS011;63298;53.164;8.610;2023-06-10T11:13:13;5.72;;;2.13;;
74777;SDS011;63298;53.164;8.610;2023-06-10T11:15:43;8.95;;;2.20;;
74777;SDS011;63298;53.164;8.610;2023-06-10T11:18:25;3.17;;;1.90;;
74777;SDS011;63298;53.164;8.610;2023-06-10T11:20:52;8.93;;;2.45;;
74777;SDS011;63298;53.164;8.610;2023-06-10T11:33:52;5.07;;;1.90;;
74777;SDS011;63298;53.164;8.610;2023-06-10T11:36:19;5.13;;;1.80;;
74777;SDS011;63298;53.164;8.610;2023-06-10T11:38:45;4.60;;;1.85;;
74777;SDS011;63298;53.164;8.610;2023-06-10T11:41:13;8.15;;;2.17;;
74777;SDS011;63298;53.164;8.610;2023-06-10T11:43:45;8.20;;;1.70;;
74777;SDS011;63298;53.164;8.610;2023-06-10T11:46:11;3.08;;;1.80;;
74777;SDS011;63298;53.164;8.610;2023-06-10T11:48:56;4.45;;;1.73;;
74777;SDS011;63298;53.164;8.610;2023-06-10T11:51:26;8.18;;;2.00;;
74777;SDS011;63298;53.164;8.610;2023-06-10T11:53:53;5.90;;;1.95;;
74777;SDS011;63298;53.164;8.610;2023-06-10T11:56:22;6.60;;;2.00;;
74777;SDS011;63298;53.164;8.610;2023-06-10T11:58:53;6.20;;;2.08;;
74777;SDS011;63298;53.164;8.610;2023-06-10T12:01:19;4.43;;;2.30;;
74777;SDS011;63298;53.164;8.610;2023-06-10T12:03:56;3.17;;;2.00;;
74777;SDS011;63298;53.164;8.610;2023-06-10T12:06:25;7.18;;;2.25;;
74777;SDS011;63298;53.164;8.610;2023-06-10T12:08:51;4.85;;;1.98;;
74777;SDS011;63298;53.164;8.610;2023-06-10T12:11:16;4.60;;;1.58;;
74777;SDS011;63298;53.164;8.610;2023-06-10T12:13:45;2.70;;;1.55;;
74777;SDS011;63298;53.164;8.610;2023-06-10T12:16:12;7.35;;;1.98;;
74777;SDS011;63298;53.164;8.610;2023-06-10T12:18:38;1.55;;;1.45;;
74777;SDS011;63298;53.164;8.610;2023-06-10T12:21:03;3.40;;;1.65;;
74777;SDS011;63298;53.164;8.610;2023-06-10T12:23:40;3.28;;;1.75;;
74777;SDS011;63298;53.164;8.610;2023-06-10T12:26:05;4.32;;;1.50;;
74777;SDS011;63298;53.164;8.610;2023-06-10T12:28:31;1.73;;;1.58;;
74777;SDS011;63298;53.164;8.610;2023-06-10T12:31:06;2.83;;;1.85;;
74777;SDS011;63298;53.164;8.610;2023-06-10T12:33:32;4.10;;;1.90;;
74777;SDS011;63298;53.164;8.610;2023-06-10T12:35:58;3.08;;;1.63;;
74777;SDS011;63298;53.164;8.610;2023-06-10T12:38:23;4.28;;;1.88;;
74777;SDS011;63298;53.164;8.610;2023-06-10T12:40:50;3.05;;;1.63;;
74777;SDS011;63298;53.164;8.610;2023-06-10T12:43:19;2.83;;;1.58;;
74777;SDS011;63298;53.164;8.610;2023-06-10T12:45:45;3.05;;;1.63;;
74777;SDS011;63298;53.164;8.610;2023-06-10T12:48:20;3.72;;;1.70;;
74777;SDS011;63298;53.164;8.610;2023-06-10T12:50:53;3.28;;;1.77;;
74777;SDS011;63298;53.164;8.610;2023-06-10T12:53:19;2.03;;;1.33;;
74777;SDS011;63298;53.164;8.610;2023-06-10T12:55:46;6.25;;;1.60;;
74777;SDS011;63298;53.164;8.610;2023-06-10T12:58:11;2.00;;;1.48;;
74777;SDS011;63298;53.164;8.610;2023-06-10T13:00:37;3.17;;;1.83;;
74777;SDS011;63298;53.164;8.610;2023-06-10T13:03:03;4.65;;;2.20;;
74777;SDS011;63298;53.164;8.610;2023-06-10T13:05:28;5.22;;;1.92;;
74777;SDS011;63298;53.164;8.610;2023-06-10T13:07:54;6.90;;;1.52;;
74777;SDS011;63298;53.164;8.610;2023-06-10T13:10:20;2.95;;;1.55;;
74777;SDS011;63298;53.164;8.610;2023-06-10T13:12:46;4.45;;;1.60;;
74777;SDS011;63298;53.164;8.610;2023-06-10T13:15:12;2.90;;;1.70;;
74777;SDS011;63298;53.164;8.610;2023-06-10T13:17:38;3.47;;;1.60;;
74777;SDS011;63298;53.164;8.610;2023-06-10T13:20:03;2.38;;;1.95;;
74777;SDS011;63298;53.164;8.610;2023-06-10T13:22:29;2.92;;;1.50;;
74777;SDS011;63298;53.164;8.610;2023-06-10T13:24:54;2.80;;;1.67;;
74777;SDS011;63298;53.164;8.610;2023-06-10T13:27:20;3.80;;;1.67;;
74777;SDS011;63298;53.164;8.610;2023-06-10T13:29:45;5.75;;;2.28;;
74777;SDS011;63298;53.164;8.610;2023-06-10T13:32:10;4.20;;;1.85;;
74777;SDS011;63298;53.164;8.610;2023-06-10T13:34:36;3.40;;;2.15;;
74777;SDS011;63298;53.164;8.610;2023-06-10T13:37:01;5.32;;;2.20;;
74777;SDS011;63298;53.164;8.610;2023-06-10T13:39:26;6.40;;;1.60;;
74777;SDS011;63298;53.164;8.610;2023-06-10T13:41:52;3.05;;;1.80;;
74777;SDS011;63298;53.164;8.610;2023-06-10T13:44:17;3.45;;;2.00;;
74777;SDS011;63298;53.164;8.610;2023-06-10T13:46:42;3.78;;;1.77;;
74777;SDS011;63298;53.164;8.610;2023-06-10T13:49:08;3.65;;;2.20;;
74777;SDS011;63298;53.164;8.610;2023-06-10T13:51:33;4.55;;;1.80;;
74777;SDS011;63298;53.164;8.610;2023-06-10T13:53:58;4.72;;;2.08;;
74777;SDS011;63298;53.164;8.610;2023-06-10T13:56:23;5.50;;;1.90;;
74777;SDS011;63298;53.164;8.610;2023-06-10T13:58:49;5.03;;;2.22;;
74777;SDS011;63298;53.164;8.610;2023-06-10T14:01:14;3.28;;;1.75;;
74777;SDS011;63298;53.164;8.610;2023-06-10T14:03:39;3.30;;;2.20;;
74777;SDS011;63298;53.164;8.610;2023-06-10T14:06:05;6.88;;;2.08;;
74777;SDS011;63298;53.164;8.610;2023-06-10T14:08:30;4.82;;;2.03;;
74777;SDS011;63298;53.164;8.610;2023-06-10T14:10:55;5.95;;;2.20;;
74777;SDS011;63298;53.164;8.610;2023-06-10T14:13:20;5.45;;;2.28;;
74777;SDS011;63298;53.164;8.610;2023-06-10T14:15:46;2.90;;;2.00;;
74777;SDS011;63298;53.164;8.610;2023-06-10T14:18:11;4.55;;;2.22;;
74777;SDS011;63298;53.164;8.610;2023-06-10T14:20:36;3.20;;;2.20;;
74777;SDS011;63298;53.164;8.610;2023-06-10T14:23:02;2.25;;;2.05;;
74777;SDS011;63298;53.164;8.610;2023-06-10T14:25:27;2.53;;;2.20;;
74777;SDS011;63298;53.164;8.610;2023-06-10T14:27:52;3.67;;;2.20;;
74777;SDS011;63298;53.164;8.610;2023-06-10T14:30:18;3.67;;;2.28;;
74777;SDS011;63298;53.164;8.610;2023-06-10T14:32:44;7.47;;;2.40;;
74777;SDS011;63298;53.164;8.610;2023-06-10T14:35:09;5.55;;;2.53;;
74777;SDS011;63298;53.164;8.610;2023-06-10T14:37:34;7.53;;;2.47;;
74777;SDS011;63298;53.164;8.610;2023-06-10T14:40:00;3.05;;;2.38;;
74777;SDS011;63298;53.164;8.610;2023-06-10T14:42:25;3.47;;;2.30;;
74777;SDS011;63298;53.164;8.610;2023-06-10T14:44:50;5.43;;;2.50;;
74777;SDS011;63298;53.164;8.610;2023-06-10T14:47:15;4.60;;;2.63;;
74777;SDS011;63298;53.164;8.610;2023-06-10T14:49:41;2.75;;;2.33;;
74777;SDS011;63298;53.164;8.610;2023-06-10T14:52:07;3.05;;;2.40;;
74777;SDS011;63298;53.164;8.610;2023-06-10T14:54:32;5.50;;;2.35;;
74777;SDS011;63298;53.164;8.610;2023-06-10T14:56:58;2.88;;;2.38;;
74777;SDS011;63298;53.164;8.610;2023-06-10T14:59:23;4.10;;;2.40;;
74777;SDS011;63298;53.164;8.610;2023-06-10T15:01:48;5.70;;;3.33;;